createdAt,value
2023-04-15T00:00:03.039Z,1.90
2023-04-15T00:02:29.634Z,2.00
2023-04-15T00:04:55.870Z,0.90
2023-04-15T00:07:22.225Z,1.60
2023-04-15T00:09:48.714Z,2.00
2023-04-15T00:12:14.790Z,1.80
2023-04-15T00:14:41.128Z,1.20
2023-04-15T00:17:07.525Z,1.10
2023-04-15T00:19:33.957Z,1.00
2023-04-15T00:22:00.793Z,1.00
2023-04-15T00:24:27.270Z,0.90
2023-04-15T00:26:53.384Z,1.00
2023-04-15T00:29:19.727Z,0.90
2023-04-15T00:31:45.824Z,0.90
2023-04-15T00:34:12.194Z,1.00
2023-04-15T00:36:38.351Z,0.80
2023-04-15T00:39:04.743Z,0.80
2023-04-15T00:41:31.148Z,0.60
2023-04-15T00:43:57.232Z,0.80
2023-04-15T00:46:23.506Z,0.60
2023-04-15T00:48:49.858Z,0.90
2023-04-15T00:51:16.065Z,1.00
2023-04-15T00:53:43.072Z,1.10
2023-04-15T00:56:09.176Z,1.10
2023-04-15T00:58:36.415Z,1.30
2023-04-15T01:01:02.528Z,1.10
2023-04-15T01:03:28.763Z,0.50
2023-04-15T01:05:57.633Z,0.80
2023-04-15T01:08:23.734Z,1.30
2023-04-15T01:10:50.054Z,1.00
2023-04-15T01:13:16.242Z,0.90
2023-04-15T01:15:43.006Z,0.90
2023-04-15T01:18:09.153Z,1.00
2023-04-15T01:20:35.696Z,0.80
2023-04-15T01:23:01.870Z,0.70
2023-04-15T01:25:28.056Z,0.50
2023-04-15T01:27:54.171Z,0.70
2023-04-15T01:30:20.277Z,1.00
2023-04-15T01:32:46.874Z,0.60
2023-04-15T01:35:13.517Z,0.70
2023-04-15T01:37:39.817Z,0.90
2023-04-15T01:40:05.908Z,0.90
2023-04-15T01:42:32.090Z,0.50
2023-04-15T01:44:58.193Z,0.60
2023-04-15T01:47:24.371Z,0.80
2023-04-15T01:49:50.924Z,0.80
2023-04-15T01:52:17.791Z,1.20
2023-04-15T01:54:43.872Z,0.90
2023-04-15T01:57:09.991Z,1.20
2023-04-15T01:59:36.635Z,1.30
2023-04-15T02:02:02.906Z,1.40
2023-04-15T02:04:29.073Z,1.30
2023-04-15T02:06:55.208Z,1.10
2023-04-15T02:09:21.305Z,0.80
2023-04-15T02:11:47.365Z,1.10
2023-04-15T02:14:13.832Z,1.40
2023-04-15T02:16:39.952Z,1.40
2023-04-15T02:19:07.062Z,1.80
2023-04-15T02:21:34.712Z,1.80
2023-04-15T02:24:01.798Z,1.60
2023-04-15T02:26:31.404Z,1.70
2023-04-15T02:28:57.515Z,2.00
2023-04-15T02:31:23.602Z,1.90
2023-04-15T02:33:49.782Z,1.70
2023-04-15T02:36:15.967Z,1.80
2023-04-15T02:38:42.604Z,2.60
2023-04-15T02:41:08.796Z,2.10
2023-04-15T02:43:34.882Z,2.00
2023-04-15T02:46:00.985Z,2.70
2023-04-15T02:48:27.283Z,1.30
2023-04-15T02:50:53.437Z,1.80
2023-04-15T02:53:20.181Z,1.50
2023-04-15T02:55:46.335Z,2.00
2023-04-15T02:58:12.479Z,2.30
2023-04-15T03:00:38.582Z,3.00
2023-04-15T03:03:05.172Z,2.30
2023-04-15T03:05:31.691Z,2.50
2023-04-15T03:07:57.773Z,1.60
2023-04-15T03:10:24.045Z,2.20
2023-04-15T03:12:50.279Z,2.90
2023-04-15T03:15:16.528Z,4.50
2023-04-15T03:17:42.751Z,4.40
2023-04-15T03:20:09.742Z,4.50
2023-04-15T03:22:35.917Z,6.60
2023-04-15T03:25:02.077Z,7.70
2023-04-15T03:27:28.314Z,7.70
2023-04-15T03:29:56.070Z,6.50
2023-04-15T03:32:22.231Z,4.90
2023-04-15T03:34:48.386Z,4.20
2023-04-15T03:37:14.470Z,4.30
2023-04-15T03:39:41.103Z,4.30
2023-04-15T03:42:07.217Z,5.70
2023-04-15T03:44:33.285Z,6.30
2023-04-15T03:46:59.423Z,6.00
2023-04-15T03:49:25.545Z,5.50
2023-04-15T03:51:51.639Z,6.50
2023-04-15T03:54:17.966Z,7.30
2023-04-15T03:56:44.069Z,6.30
2023-04-15T03:59:10.749Z,6.50
2023-04-15T04:01:36.931Z,6.20
2023-04-15T04:04:03.328Z,6.40
2023-04-15T04:06:30.469Z,4.60
2023-04-15T04:08:56.858Z,4.40
2023-04-15T04:11:23.161Z,6.40
2023-04-15T04:13:49.232Z,8.40
2023-04-15T04:16:15.951Z,8.60
2023-04-15T04:18:42.380Z,8.70
2023-04-15T04:21:08.753Z,7.80
2023-04-15T04:23:34.936Z,7.00
2023-04-15T04:26:01.266Z,6.70
2023-04-15T04:28:27.472Z,6.60
2023-04-15T04:30:53.559Z,7.10
2023-04-15T04:33:19.669Z,6.30
2023-04-15T04:35:46.171Z,7.00
2023-04-15T04:38:12.313Z,5.60
2023-04-15T04:40:38.614Z,5.40
2023-04-15T04:43:04.767Z,6.70
2023-04-15T04:45:31.248Z,5.60
2023-04-15T04:47:57.438Z,5.30
2023-04-15T04:50:23.635Z,4.50
2023-04-15T04:52:49.910Z,6.90
2023-04-15T04:55:16.171Z,6.00
2023-04-15T04:57:42.282Z,3.90
2023-04-15T05:00:08.528Z,3.90
2023-04-15T05:02:35.459Z,2.80
2023-04-15T05:05:01.727Z,2.50
2023-04-15T05:07:27.867Z,3.00
2023-04-15T05:09:54.039Z,3.80
2023-04-15T05:12:20.140Z,3.70
2023-04-15T05:14:46.383Z,4.00
2023-04-15T05:17:13.483Z,3.80
2023-04-15T05:19:39.757Z,4.60
2023-04-15T05:22:06.339Z,3.60
2023-04-15T05:24:32.446Z,5.30
2023-04-15T05:26:58.525Z,3.90
2023-04-15T05:29:24.744Z,2.70
2023-04-15T05:31:51.332Z,2.30
2023-04-15T05:34:17.515Z,2.80
2023-04-15T05:36:43.719Z,2.10
2023-04-15T05:39:09.828Z,2.40
2023-04-15T05:41:35.981Z,2.50
2023-04-15T05:44:02.212Z,2.30
2023-04-15T05:46:28.451Z,1.90
2023-04-15T05:48:56.412Z,2.10
2023-04-15T05:51:22.824Z,2.00
2023-04-15T05:53:52.067Z,1.00
2023-04-15T05:56:19.661Z,1.30
2023-04-15T05:58:45.815Z,1.10
2023-04-15T06:01:11.898Z,0.90
2023-04-15T06:03:38.361Z,0.90
2023-04-15T06:06:04.608Z,1.20
2023-04-15T06:08:30.801Z,1.20
2023-04-15T06:10:56.980Z,1.50
2023-04-15T06:13:23.069Z,1.80
2023-04-15T06:15:49.405Z,1.00
2023-04-15T06:18:15.520Z,0.90
2023-04-15T06:20:41.598Z,1.10
2023-04-15T06:23:07.723Z,2.00
2023-04-15T06:25:33.864Z,1.30
2023-04-15T06:28:00.183Z,0.30
2023-04-15T06:30:26.481Z,1.00
2023-04-15T06:32:52.753Z,1.00
2023-04-15T06:35:18.933Z,0.80
2023-04-15T06:37:45.110Z,0.90
2023-04-15T06:40:11.243Z,1.10
2023-04-15T06:42:37.634Z,1.60
2023-04-15T06:45:03.735Z,1.10
2023-04-15T06:47:29.852Z,0.80
2023-04-15T06:49:55.966Z,0.80
2023-04-15T06:52:22.272Z,1.20
2023-04-15T06:54:48.414Z,0.50
2023-04-15T06:57:14.716Z,0.90
2023-04-15T06:59:42.387Z,0.80
2023-04-15T07:02:08.519Z,0.90
2023-04-15T07:04:34.828Z,0.60
2023-04-15T07:07:01.940Z,1.00
2023-04-15T07:09:28.163Z,0.80
2023-04-15T07:11:54.215Z,0.60
2023-04-15T07:14:20.347Z,0.70
2023-04-15T07:16:46.619Z,0.80
2023-04-15T07:19:12.935Z,0.80
2023-04-15T07:21:41.214Z,0.70
2023-04-15T07:24:09.732Z,0.70
2023-04-15T07:26:35.910Z,0.60
2023-04-15T07:29:02.370Z,0.80
2023-04-15T07:31:29.289Z,0.60
2023-04-15T07:33:55.452Z,0.80
2023-04-15T07:36:21.577Z,0.70
2023-04-15T07:38:48.343Z,0.60
2023-04-15T07:41:15.115Z,0.50
2023-04-15T07:43:41.246Z,0.60
2023-04-15T07:46:07.740Z,0.70
2023-04-15T07:48:35.512Z,0.60
2023-04-15T07:51:02.834Z,0.40
2023-04-15T07:53:29.720Z,0.50
2023-04-15T07:55:55.787Z,0.70
2023-04-15T07:58:22.421Z,0.40
2023-04-15T08:00:49.752Z,0.40
2023-04-15T08:03:16.080Z,0.60
2023-04-15T08:05:42.389Z,0.60
2023-04-15T08:08:08.531Z,0.70
2023-04-15T08:10:34.949Z,0.70
2023-04-15T08:13:01.152Z,0.90
2023-04-15T08:15:27.810Z,0.50
2023-04-15T08:17:54.037Z,0.60
2023-04-15T08:20:20.635Z,0.40
2023-04-15T08:22:51.117Z,0.40
2023-04-15T08:25:17.382Z,0.60
2023-04-15T08:27:43.541Z,0.60
2023-04-15T08:30:09.949Z,0.80
2023-04-15T08:32:36.748Z,0.70
2023-04-15T08:35:03.092Z,0.90
2023-04-15T08:37:29.273Z,0.70
2023-04-15T08:39:55.675Z,0.70
2023-04-15T08:42:21.798Z,0.70
2023-04-15T08:44:48.204Z,0.90
2023-04-15T08:47:14.475Z,0.60
2023-04-15T08:49:41.325Z,1.00
2023-04-15T08:52:07.618Z,0.90
2023-04-15T08:54:33.709Z,1.00
2023-04-15T08:56:59.842Z,0.90
2023-04-15T08:59:25.982Z,1.00
2023-04-15T09:01:52.398Z,1.10
2023-04-15T09:04:18.809Z,1.10
2023-04-15T09:06:45.009Z,1.00
2023-04-15T09:09:11.523Z,1.00
2023-04-15T09:11:37.682Z,1.20
2023-04-15T09:14:03.814Z,1.30
2023-04-15T09:16:30.110Z,1.20
2023-04-15T09:18:56.499Z,1.30
2023-04-15T09:21:22.940Z,1.20
2023-04-15T09:23:49.040Z,1.40
2023-04-15T09:26:15.200Z,1.40
2023-04-15T09:28:41.589Z,1.50
2023-04-15T09:31:07.875Z,1.50
2023-04-15T09:33:34.308Z,2.60
2023-04-15T09:36:00.440Z,1.30
2023-04-15T09:38:26.532Z,1.30
2023-04-15T09:40:52.769Z,0.80
2023-04-15T09:43:18.885Z,1.30
2023-04-15T09:45:45.615Z,1.20
2023-04-15T09:48:11.725Z,0.90
2023-04-15T09:50:37.840Z,1.10
2023-04-15T09:53:03.990Z,1.80
2023-04-15T09:55:30.139Z,1.80
2023-04-15T09:57:56.269Z,1.30
2023-04-15T10:00:22.359Z,1.30
2023-04-15T10:02:49.165Z,1.00
2023-04-15T10:05:17.242Z,1.00
2023-04-15T10:07:43.352Z,1.20
2023-04-15T10:10:09.532Z,1.20
2023-04-15T10:12:36.380Z,1.40
2023-04-15T10:15:02.538Z,1.30
2023-04-15T10:17:34.616Z,1.60
2023-04-15T10:20:01.281Z,1.00
2023-04-15T10:22:27.598Z,0.80
2023-04-15T10:24:54.010Z,1.30
2023-04-15T10:27:20.166Z,1.20
2023-04-15T10:29:46.419Z,1.00
2023-04-15T10:32:12.625Z,1.10
2023-04-15T10:34:38.875Z,1.90
2023-04-15T10:37:05.162Z,1.60
2023-04-15T10:39:31.419Z,1.60
2023-04-15T10:41:57.664Z,1.40
2023-04-15T10:44:23.741Z,1.60
2023-04-15T10:46:50.269Z,1.50
2023-04-15T10:49:16.415Z,1.40
2023-04-15T10:51:42.525Z,1.30
2023-04-15T10:54:08.658Z,1.40
2023-04-15T10:56:34.734Z,1.00
2023-04-15T10:59:01.439Z,1.30
2023-04-15T11:01:27.704Z,1.40
2023-04-15T11:03:54.038Z,1.60
2023-04-15T11:06:20.280Z,1.40
2023-04-15T11:08:46.460Z,1.60
2023-04-15T11:11:12.786Z,1.50
2023-04-15T11:13:38.857Z,2.50
2023-04-15T11:16:05.661Z,1.80
2023-04-15T11:18:32.122Z,1.70
2023-04-15T11:20:58.779Z,1.40
2023-04-15T11:23:24.893Z,2.20
2023-04-15T11:25:51.288Z,1.60
2023-04-15T11:28:17.680Z,1.50
2023-04-15T11:30:44.034Z,1.80
2023-04-15T11:33:11.394Z,1.20
2023-04-15T11:35:37.737Z,1.70
2023-04-15T11:38:03.899Z,1.60
2023-04-15T11:40:30.549Z,1.40
2023-04-15T11:42:56.875Z,1.40
2023-04-15T11:45:23.033Z,1.30
2023-04-15T11:47:49.120Z,2.50
2023-04-15T11:50:15.935Z,2.40
2023-04-15T11:52:42.114Z,1.60
2023-04-15T11:55:08.386Z,1.40
2023-04-15T11:57:34.607Z,1.70
2023-04-15T12:00:00.749Z,1.80
2023-04-15T12:02:26.943Z,1.60
2023-04-15T12:04:53.297Z,1.80
2023-04-15T12:07:19.568Z,1.60
2023-04-15T12:09:45.885Z,1.30
2023-04-15T12:12:12.040Z,1.20
2023-04-15T12:14:38.544Z,1.40
2023-04-15T12:17:04.613Z,1.50
2023-04-15T12:19:32.011Z,1.70
2023-04-15T12:22:00.368Z,1.30
2023-04-15T12:24:27.127Z,1.30
2023-04-15T12:26:53.377Z,1.10
2023-04-15T12:29:20.427Z,1.50
2023-04-15T12:31:46.951Z,1.50
2023-04-15T12:34:13.428Z,1.10
2023-04-15T12:36:39.660Z,1.10
2023-04-15T12:39:06.127Z,1.40
2023-04-15T12:41:32.440Z,1.30
2023-04-15T12:43:58.546Z,1.30
2023-04-15T12:46:25.097Z,1.30
2023-04-15T12:48:54.418Z,1.10
2023-04-15T12:51:23.352Z,1.60
2023-04-15T12:53:49.422Z,1.60
2023-04-15T12:56:16.217Z,1.40
2023-04-15T12:58:42.752Z,1.70
2023-04-15T13:01:09.660Z,1.10
2023-04-15T13:03:36.059Z,1.10
2023-04-15T13:06:04.138Z,1.10
2023-04-15T13:08:30.538Z,1.30
2023-04-15T13:10:56.625Z,1.30
2023-04-15T13:13:22.729Z,1.60
2023-04-15T13:15:49.066Z,1.90
2023-04-15T13:18:15.410Z,1.60
2023-04-15T13:20:41.690Z,1.60
2023-04-15T13:23:07.783Z,1.70
2023-04-15T13:25:34.021Z,1.80
2023-04-15T13:28:00.729Z,1.70
2023-04-15T13:30:27.156Z,1.50
2023-04-15T13:32:53.757Z,1.60
2023-04-15T13:35:20.541Z,1.70
2023-04-15T13:37:46.931Z,1.60
2023-04-15T13:40:13.019Z,1.50
2023-04-15T13:42:39.219Z,1.80
2023-04-15T13:45:05.557Z,1.50
2023-04-15T13:47:31.654Z,2.40
2023-04-15T13:49:57.823Z,1.20
2023-04-15T13:52:24.031Z,1.10
2023-04-15T13:55:17.799Z,0.70
2023-04-15T13:57:36.307Z,1.60
2023-04-15T14:00:03.801Z,1.60
2023-04-15T14:02:30.197Z,0.90
2023-04-15T14:04:56.542Z,1.30
2023-04-15T14:07:22.623Z,1.00
2023-04-15T14:09:51.551Z,1.70
2023-04-15T14:12:17.655Z,2.10
2023-04-15T14:14:43.756Z,2.40
2023-04-15T14:17:10.118Z,1.20
2023-04-15T14:19:36.213Z,1.70
2023-04-15T14:22:02.973Z,1.00
2023-04-15T14:24:29.100Z,1.10
2023-04-15T14:26:56.815Z,1.20
2023-04-15T14:29:23.126Z,1.40
2023-04-15T14:32:11.071Z,1.60
2023-04-15T14:34:35.622Z,2.00
2023-04-15T14:37:01.699Z,1.60
2023-04-15T14:39:27.953Z,1.60
2023-04-15T14:41:55.023Z,1.40
2023-04-15T14:44:21.156Z,1.40
2023-04-15T14:46:47.279Z,1.50
2023-04-15T14:49:13.427Z,1.60
2023-04-15T14:51:41.643Z,1.80
2023-04-15T14:54:07.925Z,2.40
2023-04-15T14:56:34.062Z,1.80
2023-04-15T14:59:00.304Z,1.90
2023-04-15T15:01:26.459Z,1.60
2023-04-15T15:03:52.646Z,1.90
2023-04-15T15:06:18.900Z,1.80
2023-04-15T15:08:45.001Z,2.80
2023-04-15T15:11:11.125Z,2.20
2023-04-15T15:13:37.283Z,5.60
2023-04-15T15:16:03.434Z,2.40
2023-04-15T15:18:29.625Z,2.00
2023-04-15T15:20:55.698Z,5.50
2023-04-15T15:23:22.030Z,7.50
2023-04-15T15:25:48.438Z,3.40
2023-04-15T15:28:14.602Z,2.70
2023-04-15T15:30:40.751Z,6.40
2023-04-15T15:33:06.945Z,5.60
2023-04-15T15:35:33.035Z,4.10
2023-04-15T15:37:59.990Z,4.90
2023-04-15T15:40:26.654Z,4.10
2023-04-15T15:42:52.728Z,4.10
2023-04-15T15:45:18.830Z,2.80
2023-04-15T15:47:45.262Z,2.30
2023-04-15T15:50:11.477Z,2.80
2023-04-15T15:52:37.564Z,3.30
2023-04-15T15:55:03.715Z,3.40
2023-04-15T15:57:29.833Z,4.60
2023-04-15T16:00:10.310Z,3.40
2023-04-15T16:03:02.408Z,2.90
2023-04-15T16:05:23.202Z,3.20
2023-04-15T16:07:49.344Z,3.70
2023-04-15T16:10:15.673Z,3.60
2023-04-15T16:12:41.956Z,3.00
2023-04-15T16:15:08.032Z,2.50
2023-04-15T16:17:34.300Z,2.20
2023-04-15T16:20:04.646Z,1.60
2023-04-15T16:22:30.760Z,1.30
2023-04-15T16:24:56.851Z,2.10
2023-04-15T16:27:23.013Z,1.00
2023-04-15T16:29:51.864Z,1.50
2023-04-15T16:32:18.047Z,1.20
2023-04-15T16:34:44.319Z,1.50
2023-04-15T16:37:10.630Z,1.00
2023-04-15T16:39:37.068Z,1.10
2023-04-15T16:42:03.308Z,0.90
2023-04-15T16:44:29.736Z,1.00
2023-04-15T16:46:56.104Z,1.90
2023-04-15T16:49:22.276Z,1.70
2023-04-15T16:51:48.579Z,1.50
2023-04-15T16:54:14.675Z,1.60
2023-04-15T16:56:40.751Z,1.50
2023-04-15T16:59:06.880Z,1.80
2023-04-15T17:01:33.174Z,1.70
2023-04-15T17:03:59.859Z,2.30
2023-04-15T17:06:26.068Z,2.30
2023-04-15T17:08:52.321Z,1.70
2023-04-15T17:11:18.421Z,1.80
2023-04-15T17:13:44.746Z,1.90
2023-04-15T17:16:11.038Z,4.40
2023-04-15T17:18:37.271Z,4.20
2023-04-15T17:21:03.392Z,4.10
2023-04-15T17:23:30.366Z,4.80
2023-04-15T17:25:56.659Z,4.40
2023-04-15T17:28:22.756Z,2.10
2023-04-15T17:30:48.939Z,1.90
2023-04-15T17:33:55.983Z,2.40
2023-04-15T17:36:01.651Z,1.80
2023-04-15T17:38:27.957Z,1.50
2023-04-15T17:40:54.500Z,1.80
2023-04-15T17:43:21.158Z,1.70
2023-04-15T17:45:47.430Z,1.90
2023-04-15T17:48:13.747Z,2.40
2023-04-15T17:50:40.112Z,3.00
2023-04-15T17:53:06.390Z,2.80
2023-04-15T17:55:32.553Z,3.00
2023-04-15T17:57:58.642Z,2.60
2023-04-15T18:00:25.291Z,3.10
2023-04-15T18:02:52.092Z,2.80
2023-04-15T18:05:19.192Z,3.20
2023-04-15T18:07:45.671Z,2.90
2023-04-15T18:10:12.240Z,4.00
2023-04-15T18:12:38.862Z,7.10
2023-04-15T18:15:05.581Z,7.70
2023-04-15T18:17:31.692Z,6.50
2023-04-15T18:19:57.870Z,4.70
2023-04-15T18:22:24.084Z,4.40
2023-04-15T18:24:50.418Z,4.80
2023-04-15T18:27:17.021Z,8.50
2023-04-15T18:29:43.792Z,9.60
2023-04-15T18:32:10.044Z,8.40
2023-04-15T18:34:36.365Z,8.30
2023-04-15T18:37:03.127Z,8.10
2023-04-15T18:39:30.115Z,8.40
2023-04-15T18:41:56.924Z,6.90
2023-04-15T18:44:23.963Z,6.10
2023-04-15T18:46:50.489Z,6.50
2023-04-15T18:49:17.152Z,7.60
2023-04-15T18:51:43.747Z,9.20
2023-04-15T18:54:10.280Z,7.80
2023-04-15T18:56:36.969Z,6.30
2023-04-15T18:59:09.412Z,6.20
2023-04-15T19:01:50.139Z,6.10
2023-04-15T19:04:16.359Z,5.40
2023-04-15T19:06:42.884Z,6.20
2023-04-15T19:09:09.000Z,7.40
2023-04-15T19:11:35.379Z,6.80
2023-04-15T19:14:01.793Z,7.30
2023-04-15T19:16:27.976Z,9.50
2023-04-15T19:18:54.123Z,11.90
2023-04-15T19:21:20.637Z,15.30
2023-04-15T19:23:47.624Z,13.10
2023-04-15T19:26:14.069Z,10.60
2023-04-15T19:28:40.457Z,7.50
2023-04-15T19:31:06.812Z,8.30
2023-04-15T19:33:33.056Z,8.70
2023-04-15T19:35:59.143Z,9.40
2023-04-15T19:38:25.729Z,8.40
2023-04-15T19:40:52.096Z,7.80
2023-04-15T19:43:18.679Z,8.20
2023-04-15T19:45:48.568Z,8.50
2023-04-15T19:48:15.488Z,6.90
2023-04-15T19:50:41.790Z,9.20
2023-04-15T19:53:08.121Z,12.30
2023-04-15T19:55:34.377Z,10.60
2023-04-15T19:58:01.028Z,11.00
2023-04-15T20:00:27.265Z,12.60
2023-04-15T20:02:53.560Z,9.60
2023-04-15T20:05:19.784Z,11.20
2023-04-15T20:07:48.079Z,18.30
2023-04-15T20:10:14.192Z,23.40
2023-04-15T20:12:50.465Z,21.50
2023-04-15T20:15:18.937Z,19.00
2023-04-15T20:17:45.100Z,16.00
2023-04-15T20:20:11.262Z,12.70
2023-04-15T20:22:37.433Z,13.30
2023-04-15T20:25:06.312Z,14.50
2023-04-15T20:27:32.417Z,18.10
2023-04-15T20:29:58.634Z,19.40
2023-04-15T20:32:26.181Z,21.70
2023-04-15T20:34:52.274Z,22.20
2023-04-15T20:37:18.439Z,15.30
2023-04-15T20:39:44.514Z,15.30
2023-04-15T20:42:10.656Z,18.70
2023-04-15T20:44:37.917Z,18.10
2023-04-15T20:47:04.190Z,21.40
2023-04-15T20:49:30.783Z,20.10
2023-04-15T20:51:57.111Z,23.80
2023-04-15T20:54:23.170Z,22.90
2023-04-15T20:56:49.253Z,22.50
2023-04-15T20:59:15.770Z,21.20
2023-04-15T21:01:42.028Z,18.10
2023-04-15T21:04:08.251Z,18.90
2023-04-15T21:06:34.772Z,18.70
2023-04-15T21:09:00.832Z,16.00
2023-04-15T21:11:46.470Z,14.70
2023-04-15T21:14:13.119Z,13.80
2023-04-15T21:16:39.420Z,13.40
2023-04-15T21:19:05.737Z,9.00
2023-04-15T21:21:32.178Z,7.80
2023-04-15T21:23:58.244Z,7.90
2023-04-15T21:26:24.322Z,8.40
2023-04-15T21:28:50.456Z,7.70
2023-04-15T21:31:16.572Z,9.40
2023-04-15T21:33:42.734Z,9.50
2023-04-15T21:36:08.873Z,12.40
2023-04-15T21:38:34.949Z,12.10
2023-04-15T21:41:01.127Z,11.90
2023-04-15T21:43:27.432Z,11.20
2023-04-15T21:46:22.816Z,10.50
2023-04-15T21:48:39.889Z,18.00
2023-04-15T21:51:06.125Z,24.10
2023-04-15T21:53:32.645Z,28.10
2023-04-15T21:55:58.765Z,26.30
2023-04-15T21:58:24.875Z,21.40
2023-04-15T22:00:51.055Z,15.70
2023-04-15T22:03:17.611Z,15.70
2023-04-15T22:05:43.818Z,15.20
2023-04-15T22:11:25.921Z,16.60
2023-04-15T22:13:52.259Z,19.30
2023-04-15T22:16:18.443Z,25.30
2023-04-15T22:18:44.764Z,27.20
2023-04-15T22:21:11.030Z,25.10
2023-04-15T22:23:37.139Z,24.30
2023-04-15T22:26:04.190Z,25.60
2023-04-15T22:28:30.370Z,21.90
2023-04-15T22:30:57.398Z,22.80
2023-04-15T22:33:23.501Z,23.00
2023-04-15T22:35:49.597Z,20.40
2023-04-15T22:38:15.743Z,19.90
2023-04-15T22:40:41.779Z,19.20
2023-04-15T22:43:07.924Z,17.20
2023-04-15T22:45:33.982Z,16.60
2023-04-15T22:48:00.080Z,17.00
2023-04-15T22:50:26.383Z,17.20
2023-04-15T22:52:52.618Z,17.70
2023-04-15T22:55:18.861Z,18.30
2023-04-15T22:57:45.033Z,34.90
2023-04-15T23:00:11.100Z,17.60
2023-04-15T23:02:37.349Z,16.60
2023-04-15T23:05:11.609Z,16.80
2023-04-15T23:07:39.314Z,19.20
2023-04-15T23:10:05.450Z,19.40
2023-04-15T23:12:31.541Z,17.70
2023-04-15T23:14:57.710Z,18.50
2023-04-15T23:17:23.812Z,17.40
2023-04-15T23:19:50.146Z,21.20
2023-04-15T23:22:16.222Z,21.10
2023-04-15T23:24:42.467Z,21.70
2023-04-15T23:27:08.789Z,22.80
2023-04-15T23:29:35.373Z,21.40
2023-04-15T23:32:01.577Z,20.80
2023-04-15T23:34:27.808Z,20.40
2023-04-15T23:36:53.919Z,19.00
2023-04-15T23:39:20.075Z,17.90
2023-04-15T23:41:46.101Z,19.50
2023-04-15T23:44:12.235Z,18.80
2023-04-15T23:46:38.402Z,17.20
2023-04-15T23:49:04.595Z,18.10
2023-04-15T23:51:30.781Z,20.60
2023-04-15T23:53:56.947Z,20.40
2023-04-15T23:56:23.013Z,20.10
2023-04-15T23:58:49.584Z,19.20
